createdAt,value
2023-04-26T00:01:54.967Z,3.58
2023-04-26T00:04:29.708Z,3.92
2023-04-26T00:07:01.152Z,3.75
2023-04-26T00:09:31.303Z,3.65
2023-04-26T00:12:01.737Z,3.78
2023-04-26T00:14:31.493Z,4.00
2023-04-26T00:17:02.051Z,3.70
2023-04-26T00:19:34.923Z,4.10
2023-04-26T00:22:05.838Z,3.75
2023-04-26T00:24:35.751Z,3.50
2023-04-26T00:27:09.612Z,3.45
2023-04-26T00:29:39.903Z,3.60
2023-04-26T00:32:10.369Z,3.45
2023-04-26T00:34:42.914Z,3.38
2023-04-26T00:37:12.955Z,3.17
2023-04-26T00:39:43.168Z,2.95
2023-04-26T00:42:13.391Z,3.25
2023-04-26T00:44:43.573Z,3.42
2023-04-26T00:47:13.755Z,3.50
2023-04-26T00:49:46.441Z,3.30
2023-04-26T00:52:17.196Z,3.08
2023-04-26T00:54:47.131Z,3.20
2023-04-26T00:57:17.308Z,3.60
2023-04-26T00:59:47.614Z,3.63
2023-04-26T01:02:18.373Z,3.42
2023-04-26T01:04:49.987Z,3.45
2023-04-26T01:07:20.694Z,3.45
2023-04-26T01:09:52.048Z,3.63
2023-04-26T01:12:23.520Z,3.40
2023-04-26T01:14:54.375Z,3.60
2023-04-26T01:17:23.915Z,3.47
2023-04-26T01:19:55.726Z,3.15
2023-04-26T01:22:26.131Z,3.10
2023-04-26T01:24:59.300Z,3.45
2023-04-26T01:27:29.325Z,3.30
2023-04-26T01:29:59.453Z,3.50
2023-04-26T01:32:29.239Z,3.40
2023-04-26T01:34:58.876Z,3.47
2023-04-26T01:37:29.076Z,3.67
2023-04-26T01:40:00.723Z,3.83
2023-04-26T01:42:31.009Z,3.50
2023-04-26T01:45:00.880Z,3.28
2023-04-26T01:47:30.611Z,3.05
2023-04-26T01:50:00.812Z,3.30
2023-04-26T01:52:31.068Z,3.17
2023-04-26T01:55:02.808Z,3.20
2023-04-26T01:57:32.501Z,3.10
2023-04-26T02:00:02.977Z,3.45
2023-04-26T02:02:33.134Z,3.13
2023-04-26T02:05:03.664Z,3.30
2023-04-26T02:07:34.173Z,3.38
2023-04-26T02:10:06.691Z,3.60
2023-04-26T02:12:36.435Z,2.97
2023-04-26T02:15:07.530Z,3.70
2023-04-26T02:17:38.208Z,3.53
2023-04-26T02:20:10.803Z,3.53
2023-04-26T02:22:40.796Z,3.20
2023-04-26T02:25:13.862Z,3.42
2023-04-26T02:27:44.396Z,3.60
2023-04-26T02:30:15.029Z,3.83
2023-04-26T02:32:45.368Z,3.50
2023-04-26T02:35:15.786Z,3.55
2023-04-26T02:37:49.463Z,3.58
2023-04-26T02:40:22.115Z,3.30
2023-04-26T02:42:52.363Z,3.70
2023-04-26T02:45:22.335Z,4.05
2023-04-26T02:47:52.509Z,3.55
2023-04-26T02:50:22.176Z,3.33
2023-04-26T02:52:51.801Z,4.20
2023-04-26T02:55:24.258Z,3.78
2023-04-26T02:57:54.772Z,3.70
2023-04-26T03:00:25.612Z,3.80
2023-04-26T03:02:55.976Z,3.53
2023-04-26T03:05:26.693Z,3.58
2023-04-26T03:07:56.405Z,3.70
2023-04-26T03:10:28.602Z,3.58
2023-04-26T03:12:58.349Z,3.55
2023-04-26T03:15:27.832Z,3.17
2023-04-26T03:17:58.527Z,3.42
2023-04-26T03:20:28.440Z,3.42
2023-04-26T03:22:58.076Z,3.35
2023-04-26T03:25:30.225Z,3.38
2023-04-26T03:27:59.907Z,3.60
2023-04-26T03:30:30.090Z,3.65
2023-04-26T03:33:00.435Z,3.50
2023-04-26T03:35:30.381Z,3.20
2023-04-26T03:38:00.029Z,2.92
2023-04-26T03:40:31.847Z,3.47
2023-04-26T03:43:02.196Z,3.30
2023-04-26T03:45:32.273Z,3.30
2023-04-26T03:48:01.984Z,3.30
2023-04-26T03:50:32.130Z,2.70
2023-04-26T03:53:02.587Z,2.70
2023-04-26T03:55:34.677Z,2.58
2023-04-26T03:58:08.373Z,3.00
2023-04-26T04:00:40.132Z,2.40
2023-04-26T04:03:10.464Z,2.70
2023-04-26T04:05:41.121Z,2.65
2023-04-26T04:08:14.550Z,2.53
2023-04-26T04:10:47.705Z,2.47
2023-04-26T04:13:17.909Z,2.47
2023-04-26T04:15:48.617Z,2.40
2023-04-26T04:18:19.066Z,2.03
2023-04-26T04:20:49.209Z,2.33
2023-04-26T04:23:19.503Z,2.33
2023-04-26T04:25:52.048Z,2.20
2023-04-26T04:28:23.025Z,2.20
2023-04-26T04:30:53.253Z,2.20
2023-04-26T04:33:23.644Z,2.30
2023-04-26T04:35:55.295Z,2.28
2023-04-26T04:38:25.112Z,1.98
2023-04-26T04:40:57.411Z,2.20
2023-04-26T04:43:28.373Z,2.00
2023-04-26T04:45:58.953Z,2.10
2023-04-26T04:48:29.201Z,2.25
2023-04-26T04:50:58.813Z,2.13
2023-04-26T04:53:29.036Z,2.03
2023-04-26T04:56:01.179Z,1.90
2023-04-26T04:58:31.237Z,2.20
2023-04-26T05:01:03.083Z,2.10
2023-04-26T05:03:34.251Z,2.00
2023-04-26T05:06:05.011Z,2.10
2023-04-26T05:08:35.221Z,2.33
2023-04-26T05:11:06.859Z,2.00
2023-04-26T05:13:36.917Z,1.80
2023-04-26T05:16:07.652Z,1.70
2023-04-26T05:18:37.690Z,1.80
2023-04-26T05:21:08.288Z,1.70
2023-04-26T05:23:38.225Z,1.50
2023-04-26T05:26:15.998Z,1.80
2023-04-26T05:28:46.510Z,1.80
2023-04-26T05:31:16.155Z,1.60
2023-04-26T05:33:46.262Z,1.80
2023-04-26T05:36:16.891Z,1.30
2023-04-26T05:38:47.084Z,0.95
2023-04-26T05:41:18.701Z,1.35
2023-04-26T05:43:50.766Z,1.40
2023-04-26T05:46:21.417Z,1.33
2023-04-26T05:48:51.615Z,1.35
2023-04-26T05:51:21.596Z,1.35
2023-04-26T05:53:52.187Z,1.23
2023-04-26T05:56:24.624Z,1.40
2023-04-26T05:58:54.736Z,1.27
2023-04-26T06:01:24.939Z,1.40
2023-04-26T06:04:00.677Z,1.40
2023-04-26T06:06:32.910Z,1.30
2023-04-26T06:09:02.993Z,1.33
2023-04-26T06:11:34.908Z,1.15
2023-04-26T06:14:14.294Z,1.30
2023-04-26T06:16:50.095Z,1.40
2023-04-26T06:19:20.185Z,1.35
2023-04-26T06:21:52.562Z,1.35
2023-04-26T06:24:22.565Z,1.40
2023-04-26T06:26:54.465Z,1.27
2023-04-26T06:29:25.009Z,1.30
2023-04-26T06:31:54.666Z,1.10
2023-04-26T06:34:24.696Z,1.35
2023-04-26T06:36:54.967Z,1.27
2023-04-26T06:39:24.714Z,0.90
2023-04-26T06:41:56.900Z,1.20
2023-04-26T06:44:27.170Z,1.10
2023-04-26T06:46:57.739Z,1.00
2023-04-26T06:49:28.163Z,1.00
2023-04-26T06:51:58.105Z,0.95
2023-04-26T06:54:34.598Z,1.00
2023-04-26T06:57:08.120Z,1.15
2023-04-26T06:59:38.079Z,0.88
2023-04-26T07:02:09.285Z,1.08
2023-04-26T07:04:39.748Z,1.00
2023-04-26T07:07:13.036Z,0.90
2023-04-26T07:09:43.916Z,0.93
2023-04-26T07:12:16.892Z,0.90
2023-04-26T07:14:47.054Z,1.08
2023-04-26T07:17:17.592Z,1.05
2023-04-26T07:19:47.589Z,1.00
2023-04-26T07:22:17.785Z,1.00
2023-04-26T07:24:47.915Z,0.90
2023-04-26T07:27:19.424Z,1.20
2023-04-26T07:29:49.668Z,0.90
2023-04-26T07:32:19.880Z,1.08
2023-04-26T07:34:52.271Z,1.00
2023-04-26T07:37:22.380Z,0.80
2023-04-26T07:39:52.703Z,1.10
2023-04-26T07:42:24.706Z,0.88
2023-04-26T07:44:54.978Z,1.20
2023-04-26T07:47:24.656Z,0.98
2023-04-26T07:49:56.231Z,1.15
2023-04-26T07:52:26.464Z,0.95
2023-04-26T07:54:56.383Z,0.70
2023-04-26T07:57:28.747Z,0.88
2023-04-26T07:59:58.918Z,1.10
2023-04-26T08:02:43.563Z,1.65
2023-04-26T08:05:15.840Z,1.90
2023-04-26T08:07:46.135Z,2.00
2023-04-26T08:10:16.563Z,1.80
2023-04-26T08:12:48.466Z,1.90
2023-04-26T08:15:18.373Z,1.80
2023-04-26T08:17:48.763Z,1.75
2023-04-26T08:20:19.964Z,1.70
2023-04-26T08:22:50.275Z,1.52
2023-04-26T08:25:20.523Z,1.48
2023-04-26T08:27:52.852Z,1.80
2023-04-26T08:30:24.169Z,1.70
2023-04-26T08:32:54.355Z,1.83
2023-04-26T08:35:24.637Z,2.08
2023-04-26T08:37:54.761Z,2.20
2023-04-26T08:40:27.135Z,2.28
2023-04-26T08:42:58.636Z,2.45
2023-04-26T08:45:28.846Z,2.38
2023-04-26T08:48:09.557Z,1.98
2023-04-26T08:50:41.778Z,1.80
2023-04-26T08:53:15.821Z,1.80
2023-04-26T08:55:50.684Z,1.70
2023-04-26T08:58:23.110Z,1.50
2023-04-26T09:00:53.753Z,1.52
2023-04-26T09:03:27.529Z,1.23
2023-04-26T09:05:58.219Z,1.20
2023-04-26T09:08:28.700Z,1.13
2023-04-26T09:10:58.849Z,1.30
2023-04-26T09:13:32.927Z,1.20
2023-04-26T09:16:04.997Z,1.10
2023-04-26T09:18:34.878Z,1.17
2023-04-26T09:21:08.070Z,1.10
2023-04-26T09:23:38.818Z,1.02
2023-04-26T09:26:23.104Z,1.23
2023-04-26T09:29:15.868Z,1.30
2023-04-26T09:31:50.002Z,0.98
2023-04-26T09:34:20.525Z,0.95
2023-04-26T09:36:53.190Z,0.80
2023-04-26T09:39:40.363Z,0.90
2023-04-26T09:42:11.630Z,1.10
2023-04-26T09:44:43.708Z,1.05
2023-04-26T09:47:14.749Z,0.98
2023-04-26T09:49:51.186Z,1.02
2023-04-26T09:52:22.221Z,1.50
2023-04-26T09:54:54.665Z,1.33
2023-04-26T09:57:25.568Z,1.30
2023-04-26T09:59:57.881Z,1.33
2023-04-26T10:02:30.540Z,1.20
2023-04-26T10:05:02.568Z,1.08
2023-04-26T10:07:33.986Z,1.30
2023-04-26T10:10:05.934Z,1.10
2023-04-26T10:12:38.258Z,1.40
2023-04-26T10:15:13.504Z,1.38
2023-04-26T10:17:43.748Z,1.23
2023-04-26T10:20:17.766Z,1.23
2023-04-26T10:22:54.763Z,1.40
2023-04-26T10:25:38.656Z,1.25
2023-04-26T10:28:09.428Z,1.30
2023-04-26T10:31:00.146Z,1.33
2023-04-26T10:33:29.938Z,1.30
2023-04-26T10:36:14.005Z,1.10
2023-04-26T10:39:28.665Z,1.15
2023-04-26T10:42:27.826Z,1.40
2023-04-26T10:45:01.230Z,1.20
2023-04-26T10:47:37.856Z,1.13
2023-04-26T10:50:11.022Z,1.30
2023-04-26T10:53:07.873Z,1.27
2023-04-26T10:55:44.567Z,1.23
2023-04-26T10:58:31.037Z,1.40
2023-04-26T11:01:08.819Z,1.50
2023-04-26T11:03:42.929Z,1.50
2023-04-26T11:06:14.300Z,1.48
2023-04-26T11:08:44.790Z,1.50
2023-04-26T11:11:16.147Z,1.50
2023-04-26T11:13:47.292Z,1.50
2023-04-26T11:16:19.544Z,1.80
2023-04-26T11:18:51.748Z,1.90
2023-04-26T11:21:25.128Z,1.58
2023-04-26T11:23:58.374Z,1.58
2023-04-26T11:26:37.077Z,1.55
2023-04-26T11:29:10.050Z,1.50
2023-04-26T11:31:40.155Z,1.70
2023-04-26T11:34:12.208Z,1.55
2023-04-26T11:36:42.303Z,1.70
2023-04-26T11:39:14.140Z,1.63
2023-04-26T11:41:44.518Z,1.40
2023-04-26T11:44:15.174Z,1.48
2023-04-26T11:46:45.902Z,1.60
2023-04-26T11:49:19.544Z,1.58
2023-04-26T11:51:51.815Z,1.60
2023-04-26T11:54:35.003Z,1.95
2023-04-26T11:57:17.219Z,2.17
2023-04-26T11:59:48.702Z,2.60
2023-04-26T12:02:19.503Z,2.30
2023-04-26T12:05:01.665Z,2.30
2023-04-26T12:07:38.347Z,1.90
2023-04-26T12:10:19.040Z,1.90
2023-04-26T12:12:51.982Z,1.75
2023-04-26T12:15:26.092Z,1.88
2023-04-26T12:17:58.974Z,1.83
2023-04-26T12:20:36.936Z,1.60
2023-04-26T12:23:09.806Z,1.80
2023-04-26T12:25:42.284Z,1.30
2023-04-26T12:28:14.689Z,1.50
2023-04-26T12:30:45.388Z,1.48
2023-04-26T12:33:17.676Z,1.63
2023-04-26T12:35:50.349Z,1.40
2023-04-26T12:38:20.800Z,1.48
2023-04-26T12:40:51.863Z,1.30
2023-04-26T12:43:24.482Z,1.50
2023-04-26T12:45:55.065Z,1.20
2023-04-26T12:48:24.727Z,1.48
2023-04-26T12:50:56.338Z,1.05
2023-04-26T12:53:26.561Z,1.20
2023-04-26T12:55:56.339Z,1.20
2023-04-26T12:58:26.598Z,1.42
2023-04-26T13:00:56.811Z,1.33
2023-04-26T13:03:27.941Z,0.90
2023-04-26T13:05:58.990Z,1.50
2023-04-26T13:08:29.180Z,1.05
2023-04-26T13:10:59.615Z,1.08
2023-04-26T13:13:42.423Z,1.00
2023-04-26T13:16:14.521Z,1.20
2023-04-26T13:18:44.104Z,1.02
2023-04-26T13:21:15.707Z,1.05
2023-04-26T13:23:46.715Z,1.13
2023-04-26T13:26:18.579Z,1.40
2023-04-26T13:28:48.814Z,1.40
2023-04-26T13:31:19.700Z,1.40
2023-04-26T13:33:50.368Z,1.30
2023-04-26T13:36:22.461Z,1.20
2023-04-26T13:38:52.453Z,1.33
2023-04-26T13:41:22.805Z,1.20
2023-04-26T13:43:52.617Z,1.20
2023-04-26T13:46:22.754Z,1.25
2023-04-26T13:48:53.002Z,1.10
2023-04-26T13:51:27.406Z,1.38
2023-04-26T13:53:57.113Z,1.27
2023-04-26T13:56:27.130Z,1.38
2023-04-26T13:58:58.432Z,1.20
2023-04-26T14:01:29.046Z,1.73
2023-04-26T14:03:59.565Z,2.10
2023-04-26T14:06:33.322Z,1.85
2023-04-26T14:09:05.794Z,1.67
2023-04-26T14:11:36.111Z,1.42
2023-04-26T14:14:06.755Z,1.58
2023-04-26T14:16:37.191Z,1.20
2023-04-26T14:19:07.570Z,1.27
2023-04-26T14:21:39.114Z,1.20
2023-04-26T14:24:09.977Z,1.08
2023-04-26T14:26:39.638Z,1.02
2023-04-26T14:29:09.605Z,0.98
2023-04-26T14:31:40.115Z,0.85
2023-04-26T14:34:10.620Z,1.13
2023-04-26T14:36:42.253Z,0.90
2023-04-26T14:39:12.710Z,0.90
2023-04-26T14:41:42.851Z,0.85
2023-04-26T14:44:13.223Z,0.88
2023-04-26T14:46:43.564Z,1.35
2023-04-26T14:49:13.325Z,1.00
2023-04-26T14:51:45.215Z,0.88
2023-04-26T14:54:15.858Z,0.85
2023-04-26T14:56:46.050Z,1.02
2023-04-26T14:59:15.700Z,1.20
2023-04-26T15:01:45.767Z,0.90
2023-04-26T15:04:15.697Z,1.00
2023-04-26T15:06:48.106Z,1.10
2023-04-26T15:09:19.277Z,0.75
2023-04-26T15:11:49.081Z,1.20
2023-04-26T15:14:19.293Z,1.08
2023-04-26T15:16:49.340Z,1.17
2023-04-26T15:19:19.562Z,0.95
2023-04-26T15:21:51.810Z,0.73
2023-04-26T15:24:22.511Z,0.95
2023-04-26T15:26:52.757Z,1.00
2023-04-26T15:29:22.872Z,1.67
2023-04-26T15:31:53.299Z,1.40
2023-04-26T15:34:24.866Z,1.40
2023-04-26T15:36:57.011Z,1.23
2023-04-26T15:39:27.312Z,1.33
2023-04-26T15:41:58.143Z,1.00
2023-04-26T15:44:28.166Z,1.10
2023-04-26T15:46:58.378Z,1.02
2023-04-26T15:49:28.806Z,0.82
2023-04-26T15:52:01.183Z,0.68
2023-04-26T15:54:30.841Z,0.98
2023-04-26T15:57:00.771Z,0.95
2023-04-26T15:59:31.077Z,1.00
2023-04-26T16:02:01.318Z,0.98
2023-04-26T16:04:31.624Z,0.70
2023-04-26T16:07:03.438Z,0.80
2023-04-26T16:09:33.575Z,0.70
2023-04-26T16:12:04.154Z,1.00
2023-04-26T16:14:36.745Z,1.00
2023-04-26T16:17:07.128Z,1.05
2023-04-26T16:19:36.838Z,1.00
2023-04-26T16:22:08.955Z,0.70
2023-04-26T16:24:38.582Z,1.00
2023-04-26T16:27:09.056Z,0.90
2023-04-26T16:29:39.323Z,0.93
2023-04-26T16:32:08.937Z,0.88
2023-04-26T16:34:38.656Z,1.20
2023-04-26T16:37:10.884Z,0.90
2023-04-26T16:39:40.584Z,0.90
2023-04-26T16:42:10.827Z,1.02
2023-04-26T16:44:41.389Z,1.30
2023-04-26T16:47:11.926Z,1.02
2023-04-26T16:49:41.739Z,1.10
2023-04-26T16:52:13.958Z,1.10
2023-04-26T16:54:44.163Z,1.30
2023-04-26T16:57:14.542Z,1.20
2023-04-26T16:59:45.433Z,1.10
2023-04-26T17:02:16.461Z,1.15
2023-04-26T17:04:47.978Z,1.00
2023-04-26T17:07:20.462Z,1.00
2023-04-26T17:09:54.180Z,1.02
2023-04-26T17:12:24.204Z,1.00
2023-04-26T17:14:54.408Z,0.90
2023-04-26T17:17:24.321Z,0.77
2023-04-26T17:19:54.380Z,0.90
2023-04-26T17:22:27.249Z,0.93
2023-04-26T17:24:57.387Z,0.98
2023-04-26T17:27:27.547Z,1.02
2023-04-26T17:29:57.977Z,0.90
2023-04-26T17:32:28.696Z,1.17
2023-04-26T17:34:58.815Z,1.10
2023-04-26T17:37:30.943Z,1.00
2023-04-26T17:40:00.569Z,1.00
2023-04-26T17:42:30.312Z,1.10
2023-04-26T17:45:01.503Z,1.10
2023-04-26T17:47:31.590Z,1.00
2023-04-26T17:50:02.113Z,1.10
2023-04-26T17:52:33.772Z,0.85
2023-04-26T17:55:05.437Z,1.00
2023-04-26T17:57:35.691Z,1.00
2023-04-26T18:00:06.914Z,0.75
2023-04-26T18:02:38.687Z,0.80
2023-04-26T18:05:10.770Z,1.00
2023-04-26T18:07:43.477Z,1.05
2023-04-26T18:10:13.547Z,0.82
2023-04-26T18:12:43.337Z,1.02
2023-04-26T18:15:14.109Z,1.13
2023-04-26T18:17:44.144Z,1.00
2023-04-26T18:20:15.622Z,1.20
2023-04-26T18:22:47.720Z,1.20
2023-04-26T18:25:17.940Z,1.00
2023-04-26T18:27:49.322Z,1.08
2023-04-26T18:30:19.672Z,1.00
2023-04-26T18:32:49.734Z,1.05
2023-04-26T18:35:19.739Z,1.20
2023-04-26T18:37:51.886Z,1.20
2023-04-26T18:40:22.295Z,1.25
2023-04-26T18:42:52.590Z,1.20
2023-04-26T18:45:22.206Z,1.52
2023-04-26T18:47:55.096Z,1.20
2023-04-26T18:50:24.898Z,0.95
2023-04-26T18:52:57.242Z,1.27
2023-04-26T18:55:27.971Z,1.20
2023-04-26T18:57:58.487Z,1.10
2023-04-26T19:00:28.905Z,1.10
2023-04-26T19:02:59.301Z,1.00
2023-04-26T19:05:29.692Z,1.27
2023-04-26T19:08:02.534Z,0.98
2023-04-26T19:10:32.506Z,1.30
2023-04-26T19:13:02.957Z,0.98
2023-04-26T19:15:33.213Z,1.20
2023-04-26T19:18:03.077Z,1.48
2023-04-26T19:20:33.282Z,1.10
2023-04-26T19:23:05.362Z,1.23
2023-04-26T19:25:35.704Z,1.27
2023-04-26T19:28:05.743Z,1.23
2023-04-26T19:30:35.952Z,1.27
2023-04-26T19:33:06.350Z,1.23
2023-04-26T19:35:36.850Z,1.40
2023-04-26T19:38:08.409Z,1.50
2023-04-26T19:40:39.180Z,1.10
2023-04-26T19:43:09.202Z,1.17
2023-04-26T19:45:41.264Z,1.33
2023-04-26T19:48:11.222Z,1.10
2023-04-26T19:50:42.871Z,1.30
2023-04-26T19:53:17.086Z,1.20
2023-04-26T19:55:47.022Z,1.00
2023-04-26T19:58:17.469Z,1.30
2023-04-26T20:00:47.831Z,1.20
2023-04-26T20:03:18.227Z,0.85
2023-04-26T20:05:48.485Z,0.98
2023-04-26T20:08:20.635Z,1.00
2023-04-26T20:10:50.952Z,1.00
2023-04-26T20:13:21.098Z,1.30
2023-04-26T20:15:51.191Z,1.08
2023-04-26T20:18:21.714Z,1.15
2023-04-26T20:20:52.806Z,1.08
2023-04-26T20:23:24.942Z,1.20
2023-04-26T20:25:55.257Z,1.23
2023-04-26T20:28:26.121Z,1.15
2023-04-26T20:30:56.000Z,1.25
2023-04-26T20:33:25.618Z,1.27
2023-04-26T20:35:55.815Z,1.15
2023-04-26T20:38:27.740Z,1.02
2023-04-26T20:40:57.705Z,0.95
2023-04-26T20:43:27.687Z,1.27
2023-04-26T20:45:57.944Z,1.20
2023-04-26T20:48:28.035Z,1.27
2023-04-26T20:50:59.254Z,1.15
2023-04-26T20:53:31.685Z,1.13
2023-04-26T20:56:01.789Z,1.10
2023-04-26T20:58:32.149Z,1.20
2023-04-26T21:01:01.858Z,1.17
2023-04-26T21:03:32.816Z,1.40
2023-04-26T21:06:03.134Z,1.30
2023-04-26T21:08:36.485Z,1.25
2023-04-26T21:11:06.758Z,1.17
2023-04-26T21:13:36.738Z,1.10
2023-04-26T21:16:07.890Z,1.17
2023-04-26T21:18:37.825Z,1.30
2023-04-26T21:21:07.443Z,1.10
2023-04-26T21:23:39.956Z,1.25
2023-04-26T21:26:10.354Z,1.17
2023-04-26T21:28:40.309Z,1.25
2023-04-26T21:31:10.506Z,1.42
2023-04-26T21:33:40.215Z,1.35
2023-04-26T21:36:10.558Z,1.48
2023-04-26T21:38:43.195Z,1.30
2023-04-26T21:41:13.078Z,1.33
2023-04-26T21:43:43.377Z,1.27
2023-04-26T21:46:13.644Z,1.23
2023-04-26T21:48:43.849Z,1.20
2023-04-26T21:51:14.029Z,1.27
2023-04-26T21:53:45.664Z,1.40
2023-04-26T21:56:15.998Z,1.40
2023-04-26T21:58:46.669Z,1.30
2023-04-26T22:01:17.994Z,1.60
2023-04-26T22:03:48.210Z,1.40
2023-04-26T22:06:18.450Z,1.30
2023-04-26T22:08:57.440Z,1.40
2023-04-26T22:11:27.544Z,1.38
2023-04-26T22:13:57.854Z,1.45
2023-04-26T22:16:28.005Z,1.45
2023-04-26T22:18:58.025Z,1.60
2023-04-26T22:21:28.892Z,1.40
2023-04-26T22:24:01.475Z,1.30
2023-04-26T22:26:31.775Z,1.60
2023-04-26T22:29:01.484Z,1.27
2023-04-26T22:31:31.909Z,1.30
2023-04-26T22:34:02.269Z,1.55
2023-04-26T22:36:32.912Z,1.42
2023-04-26T22:39:05.140Z,1.40
2023-04-26T22:41:35.378Z,1.48
2023-04-26T22:44:05.102Z,1.40
2023-04-26T22:46:35.095Z,1.45
2023-04-26T22:49:05.306Z,1.30
2023-04-26T22:51:35.553Z,1.65
2023-04-26T22:54:08.033Z,1.48
2023-04-26T22:56:38.234Z,1.70
2023-04-26T22:59:08.646Z,1.50
2023-04-26T23:01:39.085Z,1.40
2023-04-26T23:04:09.368Z,1.42
2023-04-26T23:06:39.512Z,1.60
2023-04-26T23:09:11.980Z,1.45
2023-04-26T23:11:42.366Z,1.45
2023-04-26T23:14:12.867Z,1.60
2023-04-26T23:16:43.250Z,1.60
2023-04-26T23:19:13.478Z,1.60
2023-04-26T23:21:43.641Z,1.48
2023-04-26T23:24:16.345Z,1.40
2023-04-26T23:26:46.427Z,1.55
2023-04-26T23:29:16.953Z,1.70
2023-04-26T23:31:48.024Z,1.25
2023-04-26T23:34:17.665Z,1.30
2023-04-26T23:36:47.659Z,1.48
2023-04-26T23:39:19.970Z,1.38
2023-04-26T23:41:50.219Z,1.52
2023-04-26T23:44:20.414Z,1.40
2023-04-26T23:46:50.846Z,1.35
2023-04-26T23:49:20.701Z,1.40
2023-04-26T23:51:50.770Z,1.38
2023-04-26T23:54:22.500Z,1.30
2023-04-26T23:56:52.583Z,1.20
2023-04-26T23:59:23.547Z,1.23
